sensor_id;sensor_type;location;lat;lon;timestamp;P1;durP1;ratioP1;P2;durP2;ratioP2
6979;SDS011;3530;52.832;10.680;2023-05-15T00:02:44;5.43;;;4.82;;
6979;SDS011;3530;52.832;10.680;2023-05-15T00:05:29;5.38;;;4.85;;
6979;SDS011;3530;52.832;10.680;2023-05-15T00:08:15;5.10;;;4.70;;
6979;SDS011;3530;52.832;10.680;2023-05-15T00:11:01;5.35;;;4.85;;
6979;SDS011;3530;52.832;10.680;2023-05-15T00:13:46;6.90;;;5.18;;
6979;SDS011;3530;52.832;10.680;2023-05-15T00:16:32;5.80;;;5.30;;
6979;SDS011;3530;52.832;10.680;2023-05-15T00:19:18;7.32;;;5.45;;
6979;SDS011;3530;52.832;10.680;2023-05-15T00:22:03;5.85;;;5.35;;
6979;SDS011;3530;52.832;10.680;2023-05-15T00:24:49;9.40;;;5.70;;
6979;SDS011;3530;52.832;10.680;2023-05-15T00:27:35;6.95;;;5.88;;
6979;SDS011;3530;52.832;10.680;2023-05-15T00:30:20;6.95;;;5.38;;
6979;SDS011;3530;52.832;10.680;2023-05-15T00:33:06;5.85;;;5.20;;
6979;SDS011;3530;52.832;10.680;2023-05-15T00:35:52;6.05;;;5.40;;
6979;SDS011;3530;52.832;10.680;2023-05-15T00:38:37;6.30;;;5.60;;
6979;SDS011;3530;52.832;10.680;2023-05-15T00:41:23;6.10;;;5.53;;
6979;SDS011;3530;52.832;10.680;2023-05-15T00:44:13;6.88;;;5.40;;
6979;SDS011;3530;52.832;10.680;2023-05-15T00:47:00;6.90;;;5.60;;
6979;SDS011;3530;52.832;10.680;2023-05-15T00:49:48;6.60;;;6.03;;
6979;SDS011;3530;52.832;10.680;2023-05-15T00:52:34;6.20;;;5.53;;
6979;SDS011;3530;52.832;10.680;2023-05-15T00:55:21;6.28;;;5.70;;
6979;SDS011;3530;52.832;10.680;2023-05-15T00:58:06;6.78;;;6.03;;
6979;SDS011;3530;52.832;10.680;2023-05-15T01:00:52;6.43;;;5.88;;
6979;SDS011;3530;52.832;10.680;2023-05-15T01:03:38;6.88;;;5.95;;
6979;SDS011;3530;52.832;10.680;2023-05-15T01:06:24;6.97;;;6.05;;
6979;SDS011;3530;52.832;10.680;2023-05-15T01:09:10;7.22;;;6.53;;
6979;SDS011;3530;52.832;10.680;2023-05-15T01:11:56;6.75;;;5.28;;
6979;SDS011;3530;52.832;10.680;2023-05-15T01:14:43;8.05;;;5.72;;
6979;SDS011;3530;52.832;10.680;2023-05-15T01:17:29;6.60;;;5.95;;
6979;SDS011;3530;52.832;10.680;2023-05-15T01:20:17;7.97;;;6.80;;
6979;SDS011;3530;52.832;10.680;2023-05-15T01:23:11;6.65;;;6.00;;
6979;SDS011;3530;52.832;10.680;2023-05-15T01:26:12;7.47;;;5.55;;
6979;SDS011;3530;52.832;10.680;2023-05-15T01:29:07;6.50;;;5.90;;
6979;SDS011;3530;52.832;10.680;2023-05-15T01:32:08;6.60;;;6.00;;
6979;SDS011;3530;52.832;10.680;2023-05-15T01:35:12;8.48;;;6.57;;
6979;SDS011;3530;52.832;10.680;2023-05-15T01:38:02;6.18;;;5.57;;
6979;SDS011;3530;52.832;10.680;2023-05-15T01:40:55;6.97;;;6.38;;
6979;SDS011;3530;52.832;10.680;2023-05-15T01:43:44;6.45;;;5.85;;
6979;SDS011;3530;52.832;10.680;2023-05-15T01:46:30;8.13;;;5.82;;
6979;SDS011;3530;52.832;10.680;2023-05-15T01:49:16;6.50;;;5.90;;
6979;SDS011;3530;52.832;10.680;2023-05-15T01:52:14;6.05;;;5.55;;
6979;SDS011;3530;52.832;10.680;2023-05-15T01:55:01;6.88;;;6.20;;
6979;SDS011;3530;52.832;10.680;2023-05-15T01:57:49;6.75;;;6.00;;
6979;SDS011;3530;52.832;10.680;2023-05-15T02:00:35;6.68;;;6.05;;
6979;SDS011;3530;52.832;10.680;2023-05-15T02:03:22;7.47;;;6.15;;
6979;SDS011;3530;52.832;10.680;2023-05-15T02:06:08;6.20;;;5.78;;
6979;SDS011;3530;52.832;10.680;2023-05-15T02:08:56;6.60;;;6.00;;
6979;SDS011;3530;52.832;10.680;2023-05-15T02:11:42;7.22;;;5.90;;
6979;SDS011;3530;52.832;10.680;2023-05-15T02:14:27;6.53;;;5.32;;
6979;SDS011;3530;52.832;10.680;2023-05-15T02:17:13;8.18;;;5.72;;
6979;SDS011;3530;52.832;10.680;2023-05-15T02:19:59;6.53;;;6.00;;
6979;SDS011;3530;52.832;10.680;2023-05-15T02:22:45;6.82;;;6.07;;
6979;SDS011;3530;52.832;10.680;2023-05-15T02:25:37;7.03;;;6.15;;
6979;SDS011;3530;52.832;10.680;2023-05-15T02:31:48;8.13;;;6.28;;
6979;SDS011;3530;52.832;10.680;2023-05-15T02:34:54;7.40;;;6.43;;
6979;SDS011;3530;52.832;10.680;2023-05-15T02:37:41;7.18;;;6.22;;
6979;SDS011;3530;52.832;10.680;2023-05-15T02:40:30;7.85;;;5.97;;
6979;SDS011;3530;52.832;10.680;2023-05-15T02:43:16;7.10;;;6.50;;
6979;SDS011;3530;52.832;10.680;2023-05-15T02:46:02;8.40;;;6.70;;
6979;SDS011;3530;52.832;10.680;2023-05-15T02:48:49;6.78;;;6.13;;
6979;SDS011;3530;52.832;10.680;2023-05-15T02:51:36;7.90;;;6.72;;
6979;SDS011;3530;52.832;10.680;2023-05-15T02:54:21;7.60;;;6.90;;
6979;SDS011;3530;52.832;10.680;2023-05-15T02:57:07;8.88;;;6.88;;
6979;SDS011;3530;52.832;10.680;2023-05-15T02:59:53;8.90;;;6.93;;
6979;SDS011;3530;52.832;10.680;2023-05-15T03:02:40;8.15;;;6.93;;
6979;SDS011;3530;52.832;10.680;2023-05-15T03:05:25;8.90;;;6.40;;
6979;SDS011;3530;52.832;10.680;2023-05-15T03:08:11;7.15;;;6.53;;
6979;SDS011;3530;52.832;10.680;2023-05-15T03:10:57;7.72;;;6.45;;
6979;SDS011;3530;52.832;10.680;2023-05-15T03:13:42;7.93;;;6.20;;
6979;SDS011;3530;52.832;10.680;2023-05-15T03:16:28;6.70;;;6.00;;
6979;SDS011;3530;52.832;10.680;2023-05-15T03:19:14;7.78;;;6.60;;
6979;SDS011;3530;52.832;10.680;2023-05-15T03:21:59;6.90;;;6.30;;
6979;SDS011;3530;52.832;10.680;2023-05-15T03:24:45;7.47;;;5.57;;
6979;SDS011;3530;52.832;10.680;2023-05-15T03:27:31;7.50;;;6.70;;
6979;SDS011;3530;52.832;10.680;2023-05-15T03:30:16;12.50;;;7.35;;
6979;SDS011;3530;52.832;10.680;2023-05-15T03:33:02;7.22;;;6.50;;
6979;SDS011;3530;52.832;10.680;2023-05-15T03:35:48;7.28;;;6.28;;
6979;SDS011;3530;52.832;10.680;2023-05-15T03:38:35;7.22;;;6.40;;
6979;SDS011;3530;52.832;10.680;2023-05-15T03:41:21;8.60;;;6.35;;
6979;SDS011;3530;52.832;10.680;2023-05-15T03:44:06;8.02;;;6.88;;
6979;SDS011;3530;52.832;10.680;2023-05-15T03:46:52;8.35;;;7.00;;
6979;SDS011;3530;52.832;10.680;2023-05-15T03:49:37;8.40;;;6.80;;
6979;SDS011;3530;52.832;10.680;2023-05-15T03:52:23;7.68;;;6.95;;
6979;SDS011;3530;52.832;10.680;2023-05-15T03:55:09;7.72;;;6.68;;
6979;SDS011;3530;52.832;10.680;2023-05-15T03:57:55;8.10;;;6.97;;
6979;SDS011;3530;52.832;10.680;2023-05-15T04:00:41;7.78;;;7.07;;
6979;SDS011;3530;52.832;10.680;2023-05-15T04:03:26;9.30;;;6.88;;
6979;SDS011;3530;52.832;10.680;2023-05-15T04:06:12;7.78;;;6.88;;
6979;SDS011;3530;52.832;10.680;2023-05-15T04:08:58;8.15;;;7.35;;
6979;SDS011;3530;52.832;10.680;2023-05-15T04:11:44;9.65;;;7.28;;
6979;SDS011;3530;52.832;10.680;2023-05-15T04:14:30;9.02;;;6.70;;
6979;SDS011;3530;52.832;10.680;2023-05-15T04:17:16;8.23;;;7.22;;
6979;SDS011;3530;52.832;10.680;2023-05-15T04:20:02;7.68;;;6.97;;
6979;SDS011;3530;52.832;10.680;2023-05-15T04:22:48;8.15;;;7.35;;
6979;SDS011;3530;52.832;10.680;2023-05-15T04:25:34;7.65;;;6.90;;
6979;SDS011;3530;52.832;10.680;2023-05-15T04:28:20;8.45;;;7.47;;
6979;SDS011;3530;52.832;10.680;2023-05-15T04:31:06;8.38;;;7.45;;
6979;SDS011;3530;52.832;10.680;2023-05-15T04:33:52;8.35;;;7.55;;
6979;SDS011;3530;52.832;10.680;2023-05-15T04:36:37;7.97;;;7.18;;
6979;SDS011;3530;52.832;10.680;2023-05-15T04:39:23;9.75;;;7.38;;
6979;SDS011;3530;52.832;10.680;2023-05-15T04:42:09;9.52;;;7.65;;
6979;SDS011;3530;52.832;10.680;2023-05-15T04:44:54;9.95;;;7.82;;
6979;SDS011;3530;52.832;10.680;2023-05-15T04:47:41;8.07;;;7.28;;
6979;SDS011;3530;52.832;10.680;2023-05-15T04:50:27;9.15;;;8.18;;
6979;SDS011;3530;52.832;10.680;2023-05-15T04:53:12;8.57;;;7.47;;
6979;SDS011;3530;52.832;10.680;2023-05-15T04:55:58;10.27;;;7.53;;
6979;SDS011;3530;52.832;10.680;2023-05-15T04:58:44;9.65;;;8.07;;
6979;SDS011;3530;52.832;10.680;2023-05-15T05:01:30;9.25;;;8.23;;
6979;SDS011;3530;52.832;10.680;2023-05-15T05:04:15;10.65;;;8.30;;
6979;SDS011;3530;52.832;10.680;2023-05-15T05:07:03;8.60;;;7.80;;
6979;SDS011;3530;52.832;10.680;2023-05-15T05:09:50;9.00;;;7.57;;
6979;SDS011;3530;52.832;10.680;2023-05-15T05:12:35;10.70;;;8.07;;
6979;SDS011;3530;52.832;10.680;2023-05-15T05:15:21;8.55;;;7.75;;
6979;SDS011;3530;52.832;10.680;2023-05-15T05:18:07;9.95;;;7.93;;
6979;SDS011;3530;52.832;10.680;2023-05-15T05:21:02;9.00;;;7.97;;
6979;SDS011;3530;52.832;10.680;2023-05-15T05:23:48;9.10;;;7.63;;
6979;SDS011;3530;52.832;10.680;2023-05-15T05:26:33;9.40;;;8.43;;
6979;SDS011;3530;52.832;10.680;2023-05-15T05:29:19;10.35;;;8.20;;
6979;SDS011;3530;52.832;10.680;2023-05-15T05:32:05;9.10;;;8.20;;
6979;SDS011;3530;52.832;10.680;2023-05-15T05:34:51;8.65;;;7.75;;
6979;SDS011;3530;52.832;10.680;2023-05-15T05:37:37;8.52;;;7.68;;
6979;SDS011;3530;52.832;10.680;2023-05-15T05:40:23;9.23;;;8.43;;
6979;SDS011;3530;52.832;10.680;2023-05-15T05:43:08;9.50;;;8.50;;
6979;SDS011;3530;52.832;10.680;2023-05-15T05:45:54;9.35;;;8.35;;
6979;SDS011;3530;52.832;10.680;2023-05-15T05:48:40;9.85;;;8.80;;
6979;SDS011;3530;52.832;10.680;2023-05-15T05:51:26;9.82;;;8.77;;
6979;SDS011;3530;52.832;10.680;2023-05-15T05:54:11;11.48;;;8.88;;
6979;SDS011;3530;52.832;10.680;2023-05-15T05:56:59;10.05;;;8.07;;
6979;SDS011;3530;52.832;10.680;2023-05-15T05:59:45;9.55;;;8.23;;
6979;SDS011;3530;52.832;10.680;2023-05-15T06:02:30;9.93;;;8.90;;
6979;SDS011;3530;52.832;10.680;2023-05-15T06:05:16;11.15;;;9.02;;
6979;SDS011;3530;52.832;10.680;2023-05-15T06:08:02;9.80;;;8.90;;
6979;SDS011;3530;52.832;10.680;2023-05-15T06:10:48;16.05;;;9.05;;
6979;SDS011;3530;52.832;10.680;2023-05-15T06:13:34;8.70;;;7.82;;
6979;SDS011;3530;52.832;10.680;2023-05-15T06:16:20;11.43;;;8.30;;
6979;SDS011;3530;52.832;10.680;2023-05-15T06:19:06;10.18;;;8.35;;
6979;SDS011;3530;52.832;10.680;2023-05-15T06:21:52;10.20;;;8.10;;
6979;SDS011;3530;52.832;10.680;2023-05-15T06:24:37;11.32;;;7.63;;
6979;SDS011;3530;52.832;10.680;2023-05-15T06:27:23;9.63;;;7.90;;
6979;SDS011;3530;52.832;10.680;2023-05-15T06:30:10;7.97;;;7.28;;
6979;SDS011;3530;52.832;10.680;2023-05-15T06:32:56;10.32;;;8.38;;
6979;SDS011;3530;52.832;10.680;2023-05-15T06:35:42;10.15;;;8.52;;
6979;SDS011;3530;52.832;10.680;2023-05-15T06:38:28;9.70;;;8.55;;
6979;SDS011;3530;52.832;10.680;2023-05-15T06:41:13;8.05;;;7.22;;
6979;SDS011;3530;52.832;10.680;2023-05-15T06:43:59;10.43;;;8.02;;
6979;SDS011;3530;52.832;10.680;2023-05-15T06:46:45;9.77;;;7.75;;
6979;SDS011;3530;52.832;10.680;2023-05-15T06:49:30;8.10;;;7.22;;
6979;SDS011;3530;52.832;10.680;2023-05-15T06:52:16;9.82;;;7.65;;
6979;SDS011;3530;52.832;10.680;2023-05-15T06:55:02;8.55;;;7.28;;
6979;SDS011;3530;52.832;10.680;2023-05-15T06:57:47;6.57;;;5.88;;
6979;SDS011;3530;52.832;10.680;2023-05-15T07:00:33;6.32;;;5.82;;
6979;SDS011;3530;52.832;10.680;2023-05-15T07:03:19;7.13;;;5.85;;
6979;SDS011;3530;52.832;10.680;2023-05-15T07:06:04;6.28;;;5.68;;
6979;SDS011;3530;52.832;10.680;2023-05-15T07:08:50;6.63;;;5.80;;
6979;SDS011;3530;52.832;10.680;2023-05-15T07:11:36;7.32;;;6.20;;
6979;SDS011;3530;52.832;10.680;2023-05-15T07:14:23;5.35;;;4.93;;
6979;SDS011;3530;52.832;10.680;2023-05-15T07:17:08;6.13;;;5.22;;
6979;SDS011;3530;52.832;10.680;2023-05-15T07:19:54;7.72;;;5.20;;
6979;SDS011;3530;52.832;10.680;2023-05-15T07:22:39;5.65;;;4.82;;
6979;SDS011;3530;52.832;10.680;2023-05-15T07:25:25;4.38;;;3.97;;
6979;SDS011;3530;52.832;10.680;2023-05-15T07:28:11;5.13;;;3.63;;
6979;SDS011;3530;52.832;10.680;2023-05-15T07:30:56;3.63;;;3.42;;
6979;SDS011;3530;52.832;10.680;2023-05-15T07:33:42;3.63;;;3.33;;
6979;SDS011;3530;52.832;10.680;2023-05-15T07:36:28;4.28;;;3.88;;
6979;SDS011;3530;52.832;10.680;2023-05-15T07:39:13;5.68;;;4.90;;
6979;SDS011;3530;52.832;10.680;2023-05-15T07:42:00;5.57;;;5.05;;
6979;SDS011;3530;52.832;10.680;2023-05-15T07:44:45;6.32;;;5.72;;
6979;SDS011;3530;52.832;10.680;2023-05-15T07:47:31;6.45;;;5.90;;
6979;SDS011;3530;52.832;10.680;2023-05-15T07:50:17;7.00;;;6.03;;
6979;SDS011;3530;52.832;10.680;2023-05-15T07:53:02;5.47;;;4.60;;
6979;SDS011;3530;52.832;10.680;2023-05-15T07:55:48;6.45;;;5.85;;
6979;SDS011;3530;52.832;10.680;2023-05-15T07:58:34;7.63;;;6.90;;
6979;SDS011;3530;52.832;10.680;2023-05-15T08:01:22;8.00;;;7.18;;
6979;SDS011;3530;52.832;10.680;2023-05-15T08:04:07;9.48;;;6.55;;
6979;SDS011;3530;52.832;10.680;2023-05-15T08:06:53;6.60;;;5.38;;
6979;SDS011;3530;52.832;10.680;2023-05-15T08:09:39;7.93;;;5.82;;
6979;SDS011;3530;52.832;10.680;2023-05-15T08:12:25;6.85;;;5.80;;
6979;SDS011;3530;52.832;10.680;2023-05-15T08:15:11;8.02;;;5.55;;
6979;SDS011;3530;52.832;10.680;2023-05-15T08:17:57;6.70;;;5.43;;
6979;SDS011;3530;52.832;10.680;2023-05-15T08:20:43;5.40;;;4.10;;
6979;SDS011;3530;52.832;10.680;2023-05-15T08:23:28;6.43;;;5.53;;
6979;SDS011;3530;52.832;10.680;2023-05-15T08:26:14;4.50;;;4.10;;
6979;SDS011;3530;52.832;10.680;2023-05-15T08:29:00;3.70;;;3.50;;
6979;SDS011;3530;52.832;10.680;2023-05-15T08:31:45;3.40;;;3.00;;
6979;SDS011;3530;52.832;10.680;2023-05-15T08:34:31;3.83;;;3.53;;
6979;SDS011;3530;52.832;10.680;2023-05-15T08:37:17;3.60;;;3.28;;
6979;SDS011;3530;52.832;10.680;2023-05-15T08:40:02;3.80;;;3.50;;
6979;SDS011;3530;52.832;10.680;2023-05-15T08:42:54;3.30;;;3.10;;
6979;SDS011;3530;52.832;10.680;2023-05-15T08:45:41;4.40;;;3.30;;
6979;SDS011;3530;52.832;10.680;2023-05-15T08:48:28;3.75;;;3.40;;
6979;SDS011;3530;52.832;10.680;2023-05-15T08:51:14;3.70;;;3.40;;
6979;SDS011;3530;52.832;10.680;2023-05-15T08:54:00;3.42;;;3.15;;
6979;SDS011;3530;52.832;10.680;2023-05-15T08:56:46;3.97;;;3.20;;
6979;SDS011;3530;52.832;10.680;2023-05-15T08:59:32;3.38;;;3.08;;
6979;SDS011;3530;52.832;10.680;2023-05-15T09:02:18;3.55;;;3.25;;
6979;SDS011;3530;52.832;10.680;2023-05-15T09:05:04;3.65;;;3.15;;
6979;SDS011;3530;52.832;10.680;2023-05-15T09:07:50;4.78;;;3.05;;
6979;SDS011;3530;52.832;10.680;2023-05-15T09:10:37;3.67;;;2.72;;
6979;SDS011;3530;52.832;10.680;2023-05-15T09:13:23;3.13;;;2.92;;
6979;SDS011;3530;52.832;10.680;2023-05-15T09:16:08;2.95;;;2.75;;
6979;SDS011;3530;52.832;10.680;2023-05-15T09:18:54;2.70;;;2.60;;
6979;SDS011;3530;52.832;10.680;2023-05-15T09:21:40;2.97;;;2.78;;
6979;SDS011;3530;52.832;10.680;2023-05-15T09:24:26;3.30;;;3.00;;
6979;SDS011;3530;52.832;10.680;2023-05-15T09:27:13;3.33;;;3.10;;
6979;SDS011;3530;52.832;10.680;2023-05-15T09:30:06;6.35;;;3.50;;
6979;SDS011;3530;52.832;10.680;2023-05-15T09:32:54;3.58;;;3.22;;
6979;SDS011;3530;52.832;10.680;2023-05-15T09:35:40;3.85;;;3.55;;
6979;SDS011;3530;52.832;10.680;2023-05-15T09:38:26;3.97;;;3.63;;
6979;SDS011;3530;52.832;10.680;2023-05-15T09:41:11;3.88;;;3.65;;
6979;SDS011;3530;52.832;10.680;2023-05-15T09:43:57;4.35;;;3.28;;
6979;SDS011;3530;52.832;10.680;2023-05-15T09:46:43;3.75;;;3.45;;
6979;SDS011;3530;52.832;10.680;2023-05-15T09:49:28;3.97;;;3.53;;
6979;SDS011;3530;52.832;10.680;2023-05-15T09:52:14;5.28;;;3.97;;
6979;SDS011;3530;52.832;10.680;2023-05-15T09:55:00;3.85;;;3.53;;
6979;SDS011;3530;52.832;10.680;2023-05-15T10:00:50;4.80;;;3.55;;
6979;SDS011;3530;52.832;10.680;2023-05-15T10:03:36;4.05;;;2.95;;
6979;SDS011;3530;52.832;10.680;2023-05-15T10:06:22;3.42;;;3.13;;
6979;SDS011;3530;52.832;10.680;2023-05-15T10:09:08;3.35;;;3.10;;
6979;SDS011;3530;52.832;10.680;2023-05-15T10:11:54;3.80;;;3.50;;
6979;SDS011;3530;52.832;10.680;2023-05-15T10:14:40;3.67;;;3.40;;
6979;SDS011;3530;52.832;10.680;2023-05-15T10:17:26;3.40;;;3.10;;
6979;SDS011;3530;52.832;10.680;2023-05-15T10:20:12;4.85;;;3.38;;
6979;SDS011;3530;52.832;10.680;2023-05-15T10:22:58;3.25;;;3.05;;
6979;SDS011;3530;52.832;10.680;2023-05-15T10:25:47;3.25;;;2.95;;
6979;SDS011;3530;52.832;10.680;2023-05-15T10:28:34;2.80;;;2.60;;
6979;SDS011;3530;52.832;10.680;2023-05-15T10:31:20;4.20;;;2.63;;
6979;SDS011;3530;52.832;10.680;2023-05-15T10:34:06;2.53;;;2.42;;
6979;SDS011;3530;52.832;10.680;2023-05-15T10:36:53;3.10;;;2.90;;
6979;SDS011;3530;52.832;10.680;2023-05-15T10:39:38;2.58;;;2.47;;
6979;SDS011;3530;52.832;10.680;2023-05-15T10:42:25;3.00;;;2.80;;
6979;SDS011;3530;52.832;10.680;2023-05-15T10:45:11;3.03;;;2.83;;
6979;SDS011;3530;52.832;10.680;2023-05-15T10:47:57;2.83;;;2.63;;
6979;SDS011;3530;52.832;10.680;2023-05-15T10:50:43;3.75;;;2.92;;
6979;SDS011;3530;52.832;10.680;2023-05-15T10:53:30;2.85;;;2.65;;
6979;SDS011;3530;52.832;10.680;2023-05-15T10:56:16;2.85;;;2.55;;
6979;SDS011;3530;52.832;10.680;2023-05-15T10:59:09;3.33;;;3.13;;
6979;SDS011;3530;52.832;10.680;2023-05-15T11:01:55;2.97;;;2.78;;
6979;SDS011;3530;52.832;10.680;2023-05-15T11:04:41;3.35;;;3.05;;
6979;SDS011;3530;52.832;10.680;2023-05-15T11:07:28;4.80;;;2.90;;
6979;SDS011;3530;52.832;10.680;2023-05-15T11:10:34;3.10;;;2.90;;
6979;SDS011;3530;52.832;10.680;2023-05-15T11:13:20;3.58;;;2.90;;
6979;SDS011;3530;52.832;10.680;2023-05-15T11:16:06;4.20;;;3.42;;
6979;SDS011;3530;52.832;10.680;2023-05-15T11:18:51;3.08;;;2.80;;
6979;SDS011;3530;52.832;10.680;2023-05-15T11:21:43;3.08;;;2.85;;
6979;SDS011;3530;52.832;10.680;2023-05-15T11:24:30;3.35;;;3.00;;
6979;SDS011;3530;52.832;10.680;2023-05-15T11:27:17;3.35;;;3.15;;
6979;SDS011;3530;52.832;10.680;2023-05-15T11:30:14;3.15;;;2.92;;
6979;SDS011;3530;52.832;10.680;2023-05-15T11:33:09;3.80;;;2.90;;
6979;SDS011;3530;52.832;10.680;2023-05-15T11:35:58;2.92;;;2.78;;
6979;SDS011;3530;52.832;10.680;2023-05-15T11:38:44;2.80;;;2.40;;
6979;SDS011;3530;52.832;10.680;2023-05-15T11:41:35;3.40;;;2.85;;
6979;SDS011;3530;52.832;10.680;2023-05-15T11:44:22;2.90;;;2.70;;
6979;SDS011;3530;52.832;10.680;2023-05-15T11:47:08;2.55;;;2.35;;
6979;SDS011;3530;52.832;10.680;2023-05-15T11:49:54;3.67;;;3.38;;
6979;SDS011;3530;52.832;10.680;2023-05-15T11:52:41;3.63;;;2.60;;
6979;SDS011;3530;52.832;10.680;2023-05-15T11:55:27;3.08;;;2.35;;
6979;SDS011;3530;52.832;10.680;2023-05-15T11:58:14;4.88;;;2.65;;
6979;SDS011;3530;52.832;10.680;2023-05-15T12:01:01;2.85;;;2.65;;
6979;SDS011;3530;52.832;10.680;2023-05-15T12:03:47;2.92;;;2.78;;
6979;SDS011;3530;52.832;10.680;2023-05-15T12:06:33;2.95;;;2.60;;
6979;SDS011;3530;52.832;10.680;2023-05-15T12:09:19;2.50;;;2.30;;
6979;SDS011;3530;52.832;10.680;2023-05-15T12:12:08;2.67;;;2.45;;
6979;SDS011;3530;52.832;10.680;2023-05-15T12:14:57;3.17;;;2.78;;
6979;SDS011;3530;52.832;10.680;2023-05-15T12:17:43;3.88;;;2.55;;
6979;SDS011;3530;52.832;10.680;2023-05-15T12:20:31;3.05;;;2.80;;
6979;SDS011;3530;52.832;10.680;2023-05-15T12:23:22;2.83;;;2.50;;
6979;SDS011;3530;52.832;10.680;2023-05-15T12:26:08;2.40;;;2.30;;
6979;SDS011;3530;52.832;10.680;2023-05-15T12:28:54;3.25;;;3.00;;
6979;SDS011;3530;52.832;10.680;2023-05-15T12:31:40;4.22;;;2.47;;
6979;SDS011;3530;52.832;10.680;2023-05-15T12:34:26;3.53;;;2.80;;
6979;SDS011;3530;52.832;10.680;2023-05-15T12:37:12;3.03;;;2.80;;
6979;SDS011;3530;52.832;10.680;2023-05-15T12:40:01;3.47;;;2.78;;
6979;SDS011;3530;52.832;10.680;2023-05-15T12:42:54;3.50;;;2.92;;
6979;SDS011;3530;52.832;10.680;2023-05-15T12:45:40;3.38;;;2.67;;
6979;SDS011;3530;52.832;10.680;2023-05-15T12:48:29;2.95;;;2.75;;
6979;SDS011;3530;52.832;10.680;2023-05-15T12:51:16;2.72;;;2.45;;
6979;SDS011;3530;52.832;10.680;2023-05-15T12:54:02;3.33;;;2.80;;
6979;SDS011;3530;52.832;10.680;2023-05-15T12:56:48;3.17;;;2.97;;
6979;SDS011;3530;52.832;10.680;2023-05-15T12:59:34;2.75;;;2.65;;
6979;SDS011;3530;52.832;10.680;2023-05-15T13:02:20;3.53;;;3.20;;
6979;SDS011;3530;52.832;10.680;2023-05-15T13:05:07;3.33;;;3.08;;
6979;SDS011;3530;52.832;10.680;2023-05-15T13:07:53;2.90;;;2.70;;
6979;SDS011;3530;52.832;10.680;2023-05-15T13:10:39;3.55;;;2.95;;
6979;SDS011;3530;52.832;10.680;2023-05-15T13:13:44;3.25;;;2.47;;
6979;SDS011;3530;52.832;10.680;2023-05-15T13:16:30;3.70;;;3.05;;
6979;SDS011;3530;52.832;10.680;2023-05-15T13:19:17;2.58;;;2.45;;
6979;SDS011;3530;52.832;10.680;2023-05-15T13:22:02;2.53;;;2.30;;
6979;SDS011;3530;52.832;10.680;2023-05-15T13:24:49;3.33;;;3.03;;
6979;SDS011;3530;52.832;10.680;2023-05-15T13:27:36;3.00;;;2.53;;
6979;SDS011;3530;52.832;10.680;2023-05-15T13:30:21;3.10;;;2.90;;
6979;SDS011;3530;52.832;10.680;2023-05-15T13:33:07;2.80;;;2.60;;
6979;SDS011;3530;52.832;10.680;2023-05-15T13:35:54;3.00;;;2.80;;
6979;SDS011;3530;52.832;10.680;2023-05-15T13:38:41;2.65;;;2.45;;
6979;SDS011;3530;52.832;10.680;2023-05-15T13:41:27;3.05;;;2.85;;
6979;SDS011;3530;52.832;10.680;2023-05-15T13:44:12;4.63;;;2.42;;
6979;SDS011;3530;52.832;10.680;2023-05-15T13:46:59;2.60;;;2.50;;
6979;SDS011;3530;52.832;10.680;2023-05-15T13:49:48;3.40;;;3.10;;
6979;SDS011;3530;52.832;10.680;2023-05-15T13:52:34;6.05;;;3.70;;
6979;SDS011;3530;52.832;10.680;2023-05-15T13:55:20;3.10;;;2.88;;
6979;SDS011;3530;52.832;10.680;2023-05-15T13:58:06;6.55;;;2.80;;
6979;SDS011;3530;52.832;10.680;2023-05-15T14:00:51;2.95;;;2.78;;
6979;SDS011;3530;52.832;10.680;2023-05-15T14:03:37;3.17;;;2.97;;
6979;SDS011;3530;52.832;10.680;2023-05-15T14:06:22;4.25;;;3.13;;
6979;SDS011;3530;52.832;10.680;2023-05-15T14:09:08;2.70;;;2.50;;
6979;SDS011;3530;52.832;10.680;2023-05-15T14:11:54;3.10;;;2.83;;
6979;SDS011;3530;52.832;10.680;2023-05-15T14:14:39;3.35;;;3.15;;
6979;SDS011;3530;52.832;10.680;2023-05-15T14:17:25;4.43;;;2.67;;
6979;SDS011;3530;52.832;10.680;2023-05-15T14:20:12;3.22;;;2.97;;
6979;SDS011;3530;52.832;10.680;2023-05-15T14:22:57;3.05;;;2.85;;
6979;SDS011;3530;52.832;10.680;2023-05-15T14:25:43;2.78;;;2.60;;
6979;SDS011;3530;52.832;10.680;2023-05-15T14:28:29;3.90;;;3.55;;
6979;SDS011;3530;52.832;10.680;2023-05-15T14:31:14;2.45;;;2.25;;
6979;SDS011;3530;52.832;10.680;2023-05-15T14:34:00;4.40;;;3.05;;
6979;SDS011;3530;52.832;10.680;2023-05-15T14:36:45;3.47;;;3.08;;
6979;SDS011;3530;52.832;10.680;2023-05-15T14:39:32;3.13;;;2.92;;
6979;SDS011;3530;52.832;10.680;2023-05-15T14:42:19;2.85;;;2.75;;
6979;SDS011;3530;52.832;10.680;2023-05-15T14:45:05;5.68;;;3.13;;
6979;SDS011;3530;52.832;10.680;2023-05-15T14:47:51;3.00;;;2.80;;
6979;SDS011;3530;52.832;10.680;2023-05-15T14:50:36;2.90;;;2.70;;
6979;SDS011;3530;52.832;10.680;2023-05-15T14:53:22;2.70;;;2.50;;
6979;SDS011;3530;52.832;10.680;2023-05-15T14:56:08;3.28;;;2.78;;
6979;SDS011;3530;52.832;10.680;2023-05-15T14:58:53;3.88;;;3.08;;
6979;SDS011;3530;52.832;10.680;2023-05-15T15:01:39;3.75;;;2.95;;
6979;SDS011;3530;52.832;10.680;2023-05-15T15:04:25;2.70;;;2.50;;
6979;SDS011;3530;52.832;10.680;2023-05-15T15:07:14;3.38;;;2.55;;
6979;SDS011;3530;52.832;10.680;2023-05-15T15:10:00;2.50;;;2.40;;
6979;SDS011;3530;52.832;10.680;2023-05-15T15:12:46;2.75;;;2.58;;
6979;SDS011;3530;52.832;10.680;2023-05-15T15:15:32;3.10;;;2.90;;
6979;SDS011;3530;52.832;10.680;2023-05-15T15:18:18;6.25;;;3.00;;
6979;SDS011;3530;52.832;10.680;2023-05-15T15:21:05;3.40;;;3.20;;
6979;SDS011;3530;52.832;10.680;2023-05-15T15:23:51;3.47;;;3.05;;
6979;SDS011;3530;52.832;10.680;2023-05-15T15:26:36;3.28;;;3.00;;
6979;SDS011;3530;52.832;10.680;2023-05-15T15:29:22;3.13;;;2.92;;
6979;SDS011;3530;52.832;10.680;2023-05-15T15:32:07;5.32;;;3.13;;
6979;SDS011;3530;52.832;10.680;2023-05-15T15:34:54;2.90;;;2.70;;
6979;SDS011;3530;52.832;10.680;2023-05-15T15:37:40;2.92;;;2.80;;
6979;SDS011;3530;52.832;10.680;2023-05-15T15:40:26;3.38;;;2.40;;
6979;SDS011;3530;52.832;10.680;2023-05-15T15:43:13;4.10;;;3.80;;
6979;SDS011;3530;52.832;10.680;2023-05-15T15:45:59;2.63;;;2.53;;
6979;SDS011;3530;52.832;10.680;2023-05-15T15:48:45;3.80;;;3.05;;
6979;SDS011;3530;52.832;10.680;2023-05-15T15:51:30;4.35;;;3.65;;
6979;SDS011;3530;52.832;10.680;2023-05-15T15:54:16;4.55;;;4.10;;
6979;SDS011;3530;52.832;10.680;2023-05-15T15:57:02;3.42;;;3.13;;
6979;SDS011;3530;52.832;10.680;2023-05-15T15:59:48;5.13;;;3.10;;
6979;SDS011;3530;52.832;10.680;2023-05-15T16:02:33;7.13;;;3.53;;
6979;SDS011;3530;52.832;10.680;2023-05-15T16:05:19;3.85;;;3.42;;
6979;SDS011;3530;52.832;10.680;2023-05-15T16:08:05;4.78;;;4.20;;
6979;SDS011;3530;52.832;10.680;2023-05-15T16:10:51;5.78;;;4.45;;
6979;SDS011;3530;52.832;10.680;2023-05-15T16:13:38;5.18;;;4.68;;
6979;SDS011;3530;52.832;10.680;2023-05-15T16:16:23;5.07;;;4.40;;
6979;SDS011;3530;52.832;10.680;2023-05-15T16:19:09;5.10;;;4.70;;
6979;SDS011;3530;52.832;10.680;2023-05-15T16:21:55;5.45;;;4.95;;
6979;SDS011;3530;52.832;10.680;2023-05-15T16:24:40;4.90;;;4.47;;
6979;SDS011;3530;52.832;10.680;2023-05-15T16:27:26;5.32;;;4.82;;
6979;SDS011;3530;52.832;10.680;2023-05-15T16:30:12;7.38;;;5.20;;
6979;SDS011;3530;52.832;10.680;2023-05-15T16:32:58;6.70;;;5.03;;
6979;SDS011;3530;52.832;10.680;2023-05-15T16:35:44;5.25;;;4.55;;
6979;SDS011;3530;52.832;10.680;2023-05-15T16:38:30;5.22;;;4.30;;
6979;SDS011;3530;52.832;10.680;2023-05-15T16:41:16;4.00;;;3.70;;
6979;SDS011;3530;52.832;10.680;2023-05-15T16:44:01;4.03;;;3.47;;
6979;SDS011;3530;52.832;10.680;2023-05-15T16:46:47;4.93;;;3.50;;
6979;SDS011;3530;52.832;10.680;2023-05-15T16:49:33;3.22;;;3.03;;
6979;SDS011;3530;52.832;10.680;2023-05-15T16:52:18;4.32;;;3.25;;
6979;SDS011;3530;52.832;10.680;2023-05-15T16:55:04;4.05;;;3.72;;
6979;SDS011;3530;52.832;10.680;2023-05-15T16:57:50;3.10;;;2.90;;
6979;SDS011;3530;52.832;10.680;2023-05-15T17:00:36;3.75;;;3.53;;
6979;SDS011;3530;52.832;10.680;2023-05-15T17:03:22;3.63;;;3.30;;
6979;SDS011;3530;52.832;10.680;2023-05-15T17:06:07;2.90;;;2.60;;